Impacts METAR Board INFO
IDs:

KTOI - Troy Muni, AL, US

Updated at: 1032 UTC 23 Feb 2018
Potential Impact None Slight Moderate High
Time22/22Z 22/23Z 23/00Z 23/01Z 23/02Z 23/03Z 23/04Z 23/05Z 23/06Z 23/07Z 23/08Z 23/09Z 23/10Z
VIS10 10 10 10 10 10 10 10 10 9 7 10 8
CIG-- -- -- -- -- -- -- -- -- -- -- -- --
CoverCLRCLRFEWCLRCLRCLRCLRCLRCLRCLRCLRFEWCLR
FltCatVFRVFRVFRVFRVFRVFRVFRVFRVFRVFRVFRVFRVFR
WX--------------------------
WDir160140120120130190000000
WSpd7 3 3 3 6 6 0 0 0 0 0 0
WGst-- -- -- -- -- -- -- -- -- -- -- -- --
Raw hourly METARs
KTOI 222153Z AUTO 16007KT 10SM CLR 28/16 A3031 RMK AO2 SLP260 T02830161
KTOI 222253Z AUTO 14003KT 10SM CLR 25/16 A3033 RMK AO2 SLP265 T02500161
KTOI 222353Z AUTO 12003KT 10SM FEW070 24/17 A3033 RMK AO2 SLP267 T02390167 10294 20233 53003
KTOI 230053Z AUTO 10SM CLR 22/17 A3034 RMK AO2 SLP271 T02220167
KTOI 230153Z AUTO 12003KT 10SM CLR 22/17 A3036 RMK AO2 PK WND 14041/0056 SLP276 T02170167
KTOI 230253Z AUTO 13006KT 10SM CLR 21/16 A3036 RMK AO2 SLP276 T02110161 51009
KTOI 230353Z AUTO 19006KT 10SM CLR 21/16 A3037 RMK AO2 SLP279 T02110161
KTOI 230453Z AUTO 00000KT 10SM CLR 18/16 A3038 RMK AO2 SLP282 T01830156
KTOI 230553Z AUTO 00000KT 10SM CLR 17/16 A3037 RMK AO2 SLP280 T01720156 10239 20172 402940161 50004
KTOI 230653Z AUTO 00000KT 9SM CLR 16/15 A3036 RMK AO2 SLP276 T01560150
KTOI 230753Z AUTO 00000KT 7SM CLR 15/14 A3036 RMK AO2 SLP275 T01500144
KTOI 230853Z AUTO 00000KT 10SM FEW055 14/14 A3035 RMK AO2 SLP274 T01440139 56006
KTOI 230953Z AUTO 00000KT 8SM CLR 14/14 A3035 RMK AO2 SLP272 T01390139